sensor_id;sensor_type;location;lat;lon;timestamp;pressure;altitude;pressure_sealevel;temperature;humidity
69239;BME280;56349;51.816;-0.026;2023-03-25T00:02:17;99216.63;;;24.27;30.17
69239;BME280;56349;51.816;-0.026;2023-03-25T00:04:43;99220.98;;;23.98;30.44
69239;BME280;56349;51.816;-0.026;2023-03-25T00:07:09;99231.64;;;23.93;30.71
69239;BME280;56349;51.816;-0.026;2023-03-25T00:09:35;99233.68;;;23.70;30.97
69239;BME280;56349;51.816;-0.026;2023-03-25T00:12:01;99237.86;;;23.74;31.21
69239;BME280;56349;51.816;-0.026;2023-03-25T00:14:27;99233.40;;;23.26;31.41
69239;BME280;56349;51.816;-0.026;2023-03-25T00:16:53;99236.99;;;23.54;31.64
69239;BME280;56349;51.816;-0.026;2023-03-25T00:19:19;99240.43;;;23.15;31.84
69239;BME280;56349;51.816;-0.026;2023-03-25T00:21:45;99239.49;;;22.95;32.07
69239;BME280;56349;51.816;-0.026;2023-03-25T00:24:11;99231.11;;;23.01;32.26
69239;BME280;56349;51.816;-0.026;2023-03-25T00:26:37;99242.30;;;22.83;32.44
69239;BME280;56349;51.816;-0.026;2023-03-25T00:29:03;99241.99;;;22.64;32.68
69239;BME280;56349;51.816;-0.026;2023-03-25T00:31:29;99240.75;;;22.50;32.85
69239;BME280;56349;51.816;-0.026;2023-03-25T00:33:55;99241.24;;;22.36;33.04
69239;BME280;56349;51.816;-0.026;2023-03-25T00:36:21;99234.78;;;22.24;33.21
69239;BME280;56349;51.816;-0.026;2023-03-25T00:38:47;99232.70;;;22.37;33.37
69239;BME280;56349;51.816;-0.026;2023-03-25T00:41:14;99231.37;;;22.24;33.53
69239;BME280;56349;51.816;-0.026;2023-03-25T00:43:38;99236.28;;;22.33;33.71
69239;BME280;56349;51.816;-0.026;2023-03-25T00:46:05;99234.43;;;22.18;33.90
69239;BME280;56349;51.816;-0.026;2023-03-25T00:48:29;99232.93;;;22.06;34.03
69239;BME280;56349;51.816;-0.026;2023-03-25T00:50:55;99238.04;;;21.72;34.20
69239;BME280;56349;51.816;-0.026;2023-03-25T00:53:21;99238.46;;;21.83;34.36
69239;BME280;56349;51.816;-0.026;2023-03-25T00:55:47;99239.46;;;21.71;34.50
69239;BME280;56349;51.816;-0.026;2023-03-25T00:58:13;99240.21;;;21.59;34.65
69239;BME280;56349;51.816;-0.026;2023-03-25T01:00:39;99244.41;;;21.70;34.80
69239;BME280;56349;51.816;-0.026;2023-03-25T01:03:05;99248.45;;;21.38;34.94
69239;BME280;56349;51.816;-0.026;2023-03-25T01:05:31;99252.68;;;21.27;35.07
69239;BME280;56349;51.816;-0.026;2023-03-25T01:07:57;99254.69;;;21.41;35.20
69239;BME280;56349;51.816;-0.026;2023-03-25T01:10:28;99261.47;;;21.35;35.29
69239;BME280;56349;51.816;-0.026;2023-03-25T01:12:48;99261.62;;;21.25;35.42
69239;BME280;56349;51.816;-0.026;2023-03-25T01:15:15;99256.02;;;21.16;35.54
69239;BME280;56349;51.816;-0.026;2023-03-25T01:17:40;99250.40;;;21.06;35.67
69239;BME280;56349;51.816;-0.026;2023-03-25T01:20:07;99254.26;;;21.25;35.77
69239;BME280;56349;51.816;-0.026;2023-03-25T01:22:32;99254.34;;;20.91;35.88
69239;BME280;56349;51.816;-0.026;2023-03-25T01:24:58;99254.73;;;21.12;35.97
69239;BME280;56349;51.816;-0.026;2023-03-25T01:27:34;99246.30;;;21.07;36.04
69239;BME280;56349;51.816;-0.026;2023-03-25T01:29:50;99247.09;;;20.74;36.13
69239;BME280;56349;51.816;-0.026;2023-03-25T01:32:16;99251.52;;;20.68;36.21
69239;BME280;56349;51.816;-0.026;2023-03-25T01:34:42;99252.37;;;20.91;36.27
69239;BME280;56349;51.816;-0.026;2023-03-25T01:37:07;99255.07;;;20.85;36.34
69239;BME280;56349;51.816;-0.026;2023-03-25T01:39:33;99254.15;;;20.53;36.41
69239;BME280;56349;51.816;-0.026;2023-03-25T01:41:59;99247.56;;;20.73;36.50
69239;BME280;56349;51.816;-0.026;2023-03-25T01:46:51;99250.44;;;20.61;36.68
69239;BME280;56349;51.816;-0.026;2023-03-25T01:49:20;99244.07;;;20.57;36.72
69239;BME280;56349;51.816;-0.026;2023-03-25T01:51:42;99240.22;;;20.52;36.79
69239;BME280;56349;51.816;-0.026;2023-03-25T01:54:06;99248.16;;;20.47;36.84
69239;BME280;56349;51.816;-0.026;2023-03-25T01:56:35;99251.26;;;20.42;36.91
69239;BME280;56349;51.816;-0.026;2023-03-25T01:58:58;99245.61;;;20.10;36.97
69239;BME280;56349;51.816;-0.026;2023-03-25T02:01:23;99249.89;;;20.34;37.00
69239;BME280;56349;51.816;-0.026;2023-03-25T02:03:51;99250.53;;;20.29;37.06
69239;BME280;56349;51.816;-0.026;2023-03-25T02:06:19;99249.48;;;20.25;37.11
69239;BME280;56349;51.816;-0.026;2023-03-25T02:08:41;99242.04;;;20.19;37.18
69239;BME280;56349;51.816;-0.026;2023-03-25T02:11:07;99250.93;;;20.13;37.26
69239;BME280;56349;51.816;-0.026;2023-03-25T02:13:34;99247.83;;;20.30;37.32
69239;BME280;56349;51.816;-0.026;2023-03-25T02:16:12;99240.22;;;20.51;37.33
69239;BME280;56349;51.816;-0.026;2023-03-25T02:18:31;99245.47;;;20.04;37.38
69239;BME280;56349;51.816;-0.026;2023-03-25T02:21:00;99247.78;;;20.23;37.41
69239;BME280;56349;51.816;-0.026;2023-03-25T02:25:52;99243.13;;;20.18;37.47
69239;BME280;56349;51.816;-0.026;2023-03-25T02:28:13;99253.97;;;20.14;37.51
69239;BME280;56349;51.816;-0.026;2023-03-25T02:30:43;99256.69;;;19.88;37.55
69239;BME280;56349;51.816;-0.026;2023-03-25T02:35:30;99256.56;;;20.05;37.61
69239;BME280;56349;51.816;-0.026;2023-03-25T02:40:17;99251.76;;;19.99;37.67
69239;BME280;56349;51.816;-0.026;2023-03-25T02:42:42;99253.84;;;19.73;37.69
69239;BME280;56349;51.816;-0.026;2023-03-25T02:45:09;99252.69;;;19.92;37.73
69239;BME280;56349;51.816;-0.026;2023-03-25T02:47:34;99261.36;;;19.90;37.74
69239;BME280;56349;51.816;-0.026;2023-03-25T02:50:00;99258.29;;;20.11;37.76
69239;BME280;56349;51.816;-0.026;2023-03-25T02:52:25;99261.87;;;19.65;37.78
69239;BME280;56349;51.816;-0.026;2023-03-25T02:54:48;99256.42;;;20.06;37.80
69239;BME280;56349;51.816;-0.026;2023-03-25T02:57:15;99260.02;;;19.81;37.84
69239;BME280;56349;51.816;-0.026;2023-03-25T02:59:39;99262.02;;;20.01;37.85
69239;BME280;56349;51.816;-0.026;2023-03-25T03:02:06;99262.08;;;19.76;37.88
69239;BME280;56349;51.816;-0.026;2023-03-25T03:04:29;99266.05;;;19.95;37.92
69239;BME280;56349;51.816;-0.026;2023-03-25T03:06:56;99265.00;;;19.91;37.94
69239;BME280;56349;51.816;-0.026;2023-03-25T03:09:24;99261.85;;;19.88;37.97
69239;BME280;56349;51.816;-0.026;2023-03-25T03:11:55;99262.18;;;19.64;37.98
69239;BME280;56349;51.816;-0.026;2023-03-25T03:14:25;99263.51;;;19.87;37.96
69239;BME280;56349;51.816;-0.026;2023-03-25T03:16:44;99255.43;;;19.84;37.98
69239;BME280;56349;51.816;-0.026;2023-03-25T03:19:17;99262.97;;;19.40;37.98
69239;BME280;56349;51.816;-0.026;2023-03-25T03:21:35;99262.24;;;19.61;38.00
69239;BME280;56349;51.816;-0.026;2023-03-25T03:23:58;99259.71;;;19.59;38.00
69239;BME280;56349;51.816;-0.026;2023-03-25T03:26:25;99262.03;;;19.79;38.02
69239;BME280;56349;51.816;-0.026;2023-03-25T03:28:47;99264.20;;;19.55;38.04
69239;BME280;56349;51.816;-0.026;2023-03-25T03:31:16;99269.38;;;19.76;38.04
69239;BME280;56349;51.816;-0.026;2023-03-25T03:33:39;99271.94;;;19.75;38.05
69239;BME280;56349;51.816;-0.026;2023-03-25T03:36:05;99272.38;;;19.29;38.05
69239;BME280;56349;51.816;-0.026;2023-03-25T03:38:29;99271.04;;;19.72;38.05
69239;BME280;56349;51.816;-0.026;2023-03-25T03:40:57;99268.69;;;19.70;38.05
69239;BME280;56349;51.816;-0.026;2023-03-25T03:43:23;99278.25;;;19.68;38.06
69239;BME280;56349;51.816;-0.026;2023-03-25T03:45:46;99278.62;;;19.43;38.09
69239;BME280;56349;51.816;-0.026;2023-03-25T03:48:12;99275.18;;;19.63;38.09
69239;BME280;56349;51.816;-0.026;2023-03-25T03:50:37;99281.62;;;19.60;38.12
69239;BME280;56349;51.816;-0.026;2023-03-25T03:53:04;99285.47;;;19.58;38.14
69239;BME280;56349;51.816;-0.026;2023-03-25T03:55:29;99288.81;;;19.56;38.16
69239;BME280;56349;51.816;-0.026;2023-03-25T03:57:54;99292.36;;;19.54;38.19
69239;BME280;56349;51.816;-0.026;2023-03-25T04:00:19;99292.28;;;19.31;38.19
69239;BME280;56349;51.816;-0.026;2023-03-25T04:02:44;99286.66;;;19.52;38.19
69239;BME280;56349;51.816;-0.026;2023-03-25T04:05:09;99289.99;;;19.30;38.17
69239;BME280;56349;51.816;-0.026;2023-03-25T04:07:34;99288.67;;;19.28;38.16
69239;BME280;56349;51.816;-0.026;2023-03-25T04:10:03;99287.34;;;19.47;38.17
69239;BME280;56349;51.816;-0.026;2023-03-25T04:12:25;99293.16;;;19.44;38.20
69239;BME280;56349;51.816;-0.026;2023-03-25T04:14:49;99297.66;;;19.41;38.22
69239;BME280;56349;51.816;-0.026;2023-03-25T04:17:15;99303.20;;;19.39;38.24
69239;BME280;56349;51.816;-0.026;2023-03-25T04:19:41;99305.31;;;19.38;38.24
69239;BME280;56349;51.816;-0.026;2023-03-25T04:22:07;99310.52;;;19.36;38.25
69239;BME280;56349;51.816;-0.026;2023-03-25T04:24:32;99307.73;;;19.37;38.23
69239;BME280;56349;51.816;-0.026;2023-03-25T04:26:57;99308.30;;;19.35;38.23
69239;BME280;56349;51.816;-0.026;2023-03-25T04:29:23;99315.51;;;19.32;38.26
69239;BME280;56349;51.816;-0.026;2023-03-25T04:31:49;99317.90;;;19.58;38.29
69239;BME280;56349;51.816;-0.026;2023-03-25T04:34:15;99317.57;;;19.35;38.29
69239;BME280;56349;51.816;-0.026;2023-03-25T04:36:41;99315.36;;;19.41;38.31
69239;BME280;56349;51.816;-0.026;2023-03-25T04:39:06;99319.42;;;19.28;38.32
69239;BME280;56349;51.816;-0.026;2023-03-25T04:41:32;99321.38;;;19.62;38.34
69239;BME280;56349;51.816;-0.026;2023-03-25T04:43:57;99320.14;;;19.77;38.28
69239;BME280;56349;51.816;-0.026;2023-03-25T04:46:33;99318.32;;;19.73;38.18
69239;BME280;56349;51.816;-0.026;2023-03-25T04:48:49;99319.12;;;19.70;37.93
69239;BME280;56349;51.816;-0.026;2023-03-25T04:51:15;99325.50;;;19.94;37.62
69239;BME280;56349;51.816;-0.026;2023-03-25T04:53:41;99325.14;;;20.15;37.33
69239;BME280;56349;51.816;-0.026;2023-03-25T04:56:09;99331.37;;;20.33;37.13
69239;BME280;56349;51.816;-0.026;2023-03-25T04:58:31;99327.43;;;20.48;37.01
69239;BME280;56349;51.816;-0.026;2023-03-25T05:00:58;99328.38;;;20.60;36.97
69239;BME280;56349;51.816;-0.026;2023-03-25T05:03:23;99321.43;;;20.68;36.98
69239;BME280;56349;51.816;-0.026;2023-03-25T05:05:49;99321.26;;;20.47;37.00
69239;BME280;56349;51.816;-0.026;2023-03-25T05:08:15;99317.17;;;20.53;36.99
69239;BME280;56349;51.816;-0.026;2023-03-25T05:10:40;99323.47;;;20.83;37.06
69239;BME280;56349;51.816;-0.026;2023-03-25T05:13:07;99320.21;;;20.62;37.12
69239;BME280;56349;51.816;-0.026;2023-03-25T05:15:33;99325.13;;;20.91;37.17
69239;BME280;56349;51.816;-0.026;2023-03-25T05:17:57;99323.38;;;20.95;37.18
69239;BME280;56349;51.816;-0.026;2023-03-25T05:20:23;99331.52;;;20.97;37.29
69239;BME280;56349;51.816;-0.026;2023-03-25T05:22:49;99330.38;;;20.74;37.32
69239;BME280;56349;51.816;-0.026;2023-03-25T05:25:15;99331.71;;;20.78;37.36
69239;BME280;56349;51.816;-0.026;2023-03-25T05:27:41;99336.06;;;20.82;37.39
69239;BME280;56349;51.816;-0.026;2023-03-25T05:30:08;99333.72;;;21.11;37.42
69239;BME280;56349;51.816;-0.026;2023-03-25T05:32:33;99340.18;;;21.12;37.49
69239;BME280;56349;51.816;-0.026;2023-03-25T05:34:59;99344.23;;;21.13;37.56
69239;BME280;56349;51.816;-0.026;2023-03-25T05:37:26;99339.37;;;20.86;37.64
69239;BME280;56349;51.816;-0.026;2023-03-25T05:39:51;99343.19;;;21.15;37.68
69239;BME280;56349;51.816;-0.026;2023-03-25T05:42:17;99344.63;;;20.90;37.73
69239;BME280;56349;51.816;-0.026;2023-03-25T05:44:42;99344.66;;;21.19;37.78
69239;BME280;56349;51.816;-0.026;2023-03-25T05:47:08;99346.86;;;20.94;37.81
69239;BME280;56349;51.816;-0.026;2023-03-25T05:49:34;99353.04;;;21.23;37.86
69239;BME280;56349;51.816;-0.026;2023-03-25T05:52:00;99353.44;;;21.26;37.88
69239;BME280;56349;51.816;-0.026;2023-03-25T05:54:26;99358.84;;;21.29;37.90
69239;BME280;56349;51.816;-0.026;2023-03-25T05:56:52;99354.01;;;21.04;37.92
69239;BME280;56349;51.816;-0.026;2023-03-25T05:59:18;99358.94;;;20.85;37.96
69239;BME280;56349;51.816;-0.026;2023-03-25T06:01:43;99359.82;;;21.09;37.96
69239;BME280;56349;51.816;-0.026;2023-03-25T06:04:09;99362.85;;;21.10;38.00
69239;BME280;56349;51.816;-0.026;2023-03-25T06:06:35;99362.90;;;21.42;37.98
69239;BME280;56349;51.816;-0.026;2023-03-25T06:09:02;99363.38;;;21.17;38.00
69239;BME280;56349;51.816;-0.026;2023-03-25T06:11:27;99370.53;;;21.19;38.01
69239;BME280;56349;51.816;-0.026;2023-03-25T06:13:53;99380.53;;;21.21;38.01
69239;BME280;56349;51.816;-0.026;2023-03-25T06:16:20;99378.05;;;21.23;37.98
69239;BME280;56349;51.816;-0.026;2023-03-25T06:18:44;99373.07;;;21.25;37.95
69239;BME280;56349;51.816;-0.026;2023-03-25T06:21:09;99372.71;;;21.04;37.90
69239;BME280;56349;51.816;-0.026;2023-03-25T06:23:35;99370.66;;;21.27;37.84
69239;BME280;56349;51.816;-0.026;2023-03-25T06:26:01;99386.77;;;21.55;37.76
69239;BME280;56349;51.816;-0.026;2023-03-25T06:28:27;99386.12;;;21.32;37.66
69239;BME280;56349;51.816;-0.026;2023-03-25T06:30:52;99378.24;;;21.58;37.60
69239;BME280;56349;51.816;-0.026;2023-03-25T06:33:18;99385.13;;;21.30;37.56
69239;BME280;56349;51.816;-0.026;2023-03-25T06:35:46;99381.97;;;21.06;37.48
69239;BME280;56349;51.816;-0.026;2023-03-25T06:38:09;99381.11;;;21.28;37.41
69239;BME280;56349;51.816;-0.026;2023-03-25T06:40:35;99383.96;;;21.24;37.37
69239;BME280;56349;51.816;-0.026;2023-03-25T06:43:01;99380.16;;;21.23;37.32
69239;BME280;56349;51.816;-0.026;2023-03-25T06:45:27;99383.80;;;21.21;37.26
69239;BME280;56349;51.816;-0.026;2023-03-25T06:47:54;99389.11;;;21.48;37.17
69239;BME280;56349;51.816;-0.026;2023-03-25T06:50:18;99385.74;;;21.19;37.12
69239;BME280;56349;51.816;-0.026;2023-03-25T06:52:44;99381.09;;;21.16;37.07
69239;BME280;56349;51.816;-0.026;2023-03-25T06:55:10;99386.37;;;21.10;37.07
69239;BME280;56349;51.816;-0.026;2023-03-25T06:57:36;99386.51;;;21.31;37.04
69239;BME280;56349;51.816;-0.026;2023-03-25T07:00:02;99387.47;;;21.27;37.02
69239;BME280;56349;51.816;-0.026;2023-03-25T07:02:27;99389.27;;;21.23;37.00
69239;BME280;56349;51.816;-0.026;2023-03-25T07:04:58;99396.95;;;20.94;36.97
69239;BME280;56349;51.816;-0.026;2023-03-25T07:07:18;99392.75;;;20.92;36.94
69239;BME280;56349;51.816;-0.026;2023-03-25T07:09:44;99391.41;;;20.68;36.89
69239;BME280;56349;51.816;-0.026;2023-03-25T07:12:10;99382.82;;;21.15;36.84
69239;BME280;56349;51.816;-0.026;2023-03-25T07:14:36;99396.96;;;21.11;36.84
69239;BME280;56349;51.816;-0.026;2023-03-25T07:17:01;99398.14;;;21.05;36.85
69239;BME280;56349;51.816;-0.026;2023-03-25T07:19:27;99397.84;;;21.03;36.82
69239;BME280;56349;51.816;-0.026;2023-03-25T07:21:53;99411.99;;;21.01;36.79
69239;BME280;56349;51.816;-0.026;2023-03-25T07:24:19;99406.75;;;20.98;36.78
69239;BME280;56349;51.816;-0.026;2023-03-25T07:26:45;99415.99;;;20.97;36.74
69239;BME280;56349;51.816;-0.026;2023-03-25T07:29:11;99418.82;;;20.95;36.70
69239;BME280;56349;51.816;-0.026;2023-03-25T07:31:36;99431.18;;;20.66;36.69
69239;BME280;56349;51.816;-0.026;2023-03-25T07:34:02;99429.90;;;20.91;36.67
69239;BME280;56349;51.816;-0.026;2023-03-25T07:36:28;99441.62;;;20.88;36.66
69239;BME280;56349;51.816;-0.026;2023-03-25T07:38:54;99433.18;;;20.83;36.65
69239;BME280;56349;51.816;-0.026;2023-03-25T07:41:20;99443.28;;;20.53;36.69
69239;BME280;56349;51.816;-0.026;2023-03-25T07:43:46;99451.91;;;20.78;36.58
69239;BME280;56349;51.816;-0.026;2023-03-25T07:46:11;99454.90;;;20.76;36.62
69239;BME280;56349;51.816;-0.026;2023-03-25T07:48:37;99454.18;;;20.77;36.76
69239;BME280;56349;51.816;-0.026;2023-03-25T07:51:03;99450.36;;;20.53;37.01
69239;BME280;56349;51.816;-0.026;2023-03-25T07:53:28;99462.04;;;20.84;37.16
69239;BME280;56349;51.816;-0.026;2023-03-25T07:55:54;99469.29;;;20.96;37.32
69239;BME280;56349;51.816;-0.026;2023-03-25T07:58:20;99471.52;;;20.86;37.26
69239;BME280;56349;51.816;-0.026;2023-03-25T08:00:46;99480.89;;;21.34;37.12
69239;BME280;56349;51.816;-0.026;2023-03-25T08:03:11;99487.71;;;21.33;36.99
69239;BME280;56349;51.816;-0.026;2023-03-25T08:05:36;99489.60;;;21.39;36.79
69239;BME280;56349;51.816;-0.026;2023-03-25T08:08:04;99493.82;;;21.68;36.53
69239;BME280;56349;51.816;-0.026;2023-03-25T08:10:28;99500.49;;;21.97;36.28
69239;BME280;56349;51.816;-0.026;2023-03-25T08:12:53;99505.22;;;22.07;35.93
69239;BME280;56349;51.816;-0.026;2023-03-25T08:15:19;99507.74;;;22.10;35.62
69239;BME280;56349;51.816;-0.026;2023-03-25T08:17:45;99518.73;;;22.41;35.26
69239;BME280;56349;51.816;-0.026;2023-03-25T08:20:11;99517.68;;;22.72;34.91
69239;BME280;56349;51.816;-0.026;2023-03-25T08:22:37;99521.85;;;23.00;34.62
69239;BME280;56349;51.816;-0.026;2023-03-25T08:25:04;99536.32;;;23.30;34.26
69239;BME280;56349;51.816;-0.026;2023-03-25T08:27:29;99530.72;;;23.09;33.93
69239;BME280;56349;51.816;-0.026;2023-03-25T08:29:55;99536.97;;;23.36;33.68
69239;BME280;56349;51.816;-0.026;2023-03-25T08:32:21;99542.05;;;23.61;33.37
69239;BME280;56349;51.816;-0.026;2023-03-25T08:34:46;99540.32;;;24.10;33.09
69239;BME280;56349;51.816;-0.026;2023-03-25T08:37:11;99550.51;;;23.81;32.86
69239;BME280;56349;51.816;-0.026;2023-03-25T08:39:37;99551.19;;;23.81;32.62
69239;BME280;56349;51.816;-0.026;2023-03-25T08:42:03;99561.02;;;24.49;32.32
69239;BME280;56349;51.816;-0.026;2023-03-25T08:44:29;99574.58;;;24.24;32.04
69239;BME280;56349;51.816;-0.026;2023-03-25T08:46:55;99567.18;;;24.43;31.76
69239;BME280;56349;51.816;-0.026;2023-03-25T08:49:20;99572.65;;;24.59;31.52
69239;BME280;56349;51.816;-0.026;2023-03-25T08:51:46;99582.75;;;24.52;31.25
69239;BME280;56349;51.816;-0.026;2023-03-25T08:54:12;99573.13;;;24.44;31.03
69239;BME280;56349;51.816;-0.026;2023-03-25T08:56:38;99583.71;;;24.82;30.76
69239;BME280;56349;51.816;-0.026;2023-03-25T08:59:04;99585.12;;;24.97;30.55
69239;BME280;56349;51.816;-0.026;2023-03-25T09:01:30;99595.55;;;25.11;30.31
69239;BME280;56349;51.816;-0.026;2023-03-25T09:03:56;99602.20;;;25.24;30.06
69239;BME280;56349;51.816;-0.026;2023-03-25T09:06:22;99607.92;;;25.16;29.91
69239;BME280;56349;51.816;-0.026;2023-03-25T09:08:48;99617.59;;;25.29;29.76
69239;BME280;56349;51.816;-0.026;2023-03-25T09:11:13;99617.72;;;25.65;29.56
69239;BME280;56349;51.816;-0.026;2023-03-25T09:13:39;99622.31;;;25.55;29.33
69239;BME280;56349;51.816;-0.026;2023-03-25T09:16:06;99631.02;;;25.42;29.15
69239;BME280;56349;51.816;-0.026;2023-03-25T09:18:31;99628.38;;;25.50;29.23
69239;BME280;56349;51.816;-0.026;2023-03-25T09:20:58;99636.53;;;25.82;29.08
69239;BME280;56349;51.816;-0.026;2023-03-25T09:23:22;99636.49;;;25.39;28.95
69239;BME280;56349;51.816;-0.026;2023-03-25T09:25:48;99633.84;;;25.73;29.07
69239;BME280;56349;51.816;-0.026;2023-03-25T09:28:14;99640.33;;;25.80;29.04
69239;BME280;56349;51.816;-0.026;2023-03-25T09:30:40;99646.82;;;26.13;28.93
69239;BME280;56349;51.816;-0.026;2023-03-25T09:33:06;99654.06;;;26.00;28.89
69239;BME280;56349;51.816;-0.026;2023-03-25T09:35:32;99647.09;;;25.83;28.77
69239;BME280;56349;51.816;-0.026;2023-03-25T09:37:58;99657.82;;;25.90;28.77
69239;BME280;56349;51.816;-0.026;2023-03-25T09:40:24;99667.43;;;25.96;28.67
69239;BME280;56349;51.816;-0.026;2023-03-25T09:42:59;99667.86;;;26.01;28.54
69239;BME280;56349;51.816;-0.026;2023-03-25T09:45:27;99675.86;;;26.32;28.37
69239;BME280;56349;51.816;-0.026;2023-03-25T09:47:50;99673.79;;;26.07;28.16
69239;BME280;56349;51.816;-0.026;2023-03-25T09:50:12;99684.34;;;26.09;28.21
69239;BME280;56349;51.816;-0.026;2023-03-25T09:52:41;99676.41;;;26.11;28.02
69239;BME280;56349;51.816;-0.026;2023-03-25T09:55:03;99680.16;;;26.16;27.91
69239;BME280;56349;51.816;-0.026;2023-03-25T09:57:29;99687.99;;;26.21;27.94
69239;BME280;56349;51.816;-0.026;2023-03-25T09:59:53;99693.08;;;26.21;27.85
69239;BME280;56349;51.816;-0.026;2023-03-25T10:02:28;99692.88;;;26.19;27.78
69239;BME280;56349;51.816;-0.026;2023-03-25T10:04:52;99693.33;;;26.14;27.80
69239;BME280;56349;51.816;-0.026;2023-03-25T10:07:19;99702.75;;;26.13;27.80
69239;BME280;56349;51.816;-0.026;2023-03-25T10:09:43;99695.01;;;26.10;27.80
69239;BME280;56349;51.816;-0.026;2023-03-25T10:12:07;99702.69;;;26.11;27.70
69239;BME280;56349;51.816;-0.026;2023-03-25T10:14:27;99705.84;;;26.39;27.62
69239;BME280;56349;51.816;-0.026;2023-03-25T10:17:01;99705.84;;;26.13;27.42
69239;BME280;56349;51.816;-0.026;2023-03-25T10:19:26;99706.18;;;26.15;27.48
69239;BME280;56349;51.816;-0.026;2023-03-25T10:21:49;99708.90;;;26.22;27.36
69239;BME280;56349;51.816;-0.026;2023-03-25T10:24:16;99716.99;;;26.27;27.23
69239;BME280;56349;51.816;-0.026;2023-03-25T10:26:39;99726.51;;;26.31;27.10
69239;BME280;56349;51.816;-0.026;2023-03-25T10:29:02;99738.94;;;26.33;27.00
69239;BME280;56349;51.816;-0.026;2023-03-25T10:31:29;99745.32;;;26.34;26.94
69239;BME280;56349;51.816;-0.026;2023-03-25T10:33:53;99742.38;;;26.35;26.94
69239;BME280;56349;51.816;-0.026;2023-03-25T10:36:17;99754.07;;;26.35;26.91
69239;BME280;56349;51.816;-0.026;2023-03-25T10:38:42;99755.60;;;26.34;26.92
69239;BME280;56349;51.816;-0.026;2023-03-25T10:41:13;99760.28;;;26.31;26.93
69239;BME280;56349;51.816;-0.026;2023-03-25T10:43:36;99761.68;;;26.28;26.99
69239;BME280;56349;51.816;-0.026;2023-03-25T10:46:01;99768.61;;;26.25;26.95
69239;BME280;56349;51.816;-0.026;2023-03-25T10:48:24;99772.23;;;26.23;26.96
69239;BME280;56349;51.816;-0.026;2023-03-25T10:50:49;99765.27;;;26.25;26.83
69239;BME280;56349;51.816;-0.026;2023-03-25T10:53:19;99775.72;;;26.21;26.71
69239;BME280;56349;51.816;-0.026;2023-03-25T10:55:40;99773.92;;;26.46;26.70
69239;BME280;56349;51.816;-0.026;2023-03-25T10:58:04;99773.43;;;26.17;26.67
69239;BME280;56349;51.816;-0.026;2023-03-25T11:00:30;99784.86;;;26.46;26.57
69239;BME280;56349;51.816;-0.026;2023-03-25T11:02:56;99785.61;;;26.21;26.53
69239;BME280;56349;51.816;-0.026;2023-03-25T11:05:26;99793.49;;;26.24;26.60
69239;BME280;56349;51.816;-0.026;2023-03-25T11:07:50;99799.53;;;26.24;26.65
69239;BME280;56349;51.816;-0.026;2023-03-25T11:10:17;99794.08;;;26.52;26.60
69239;BME280;56349;51.816;-0.026;2023-03-25T11:12:40;99795.51;;;26.26;26.63
69239;BME280;56349;51.816;-0.026;2023-03-25T11:15:06;99802.95;;;26.29;26.64
69239;BME280;56349;51.816;-0.026;2023-03-25T11:17:31;99799.48;;;26.29;26.65
69239;BME280;56349;51.816;-0.026;2023-03-25T11:19:59;99812.63;;;26.25;26.56
69239;BME280;56349;51.816;-0.026;2023-03-25T11:22:26;99820.01;;;26.20;26.52
69239;BME280;56349;51.816;-0.026;2023-03-25T11:24:51;99818.30;;;26.21;26.55
69239;BME280;56349;51.816;-0.026;2023-03-25T11:27:18;99815.17;;;26.23;26.54
69239;BME280;56349;51.816;-0.026;2023-03-25T11:29:40;99822.25;;;26.24;26.52
69239;BME280;56349;51.816;-0.026;2023-03-25T11:32:11;99822.49;;;26.24;26.60
69239;BME280;56349;51.816;-0.026;2023-03-25T11:34:32;99828.95;;;26.24;26.58
69239;BME280;56349;51.816;-0.026;2023-03-25T11:36:59;99829.70;;;26.23;26.76
69239;BME280;56349;51.816;-0.026;2023-03-25T11:39:31;99827.34;;;26.25;26.74
69239;BME280;56349;51.816;-0.026;2023-03-25T11:41:48;99819.16;;;26.28;26.68
69239;BME280;56349;51.816;-0.026;2023-03-25T11:44:21;99830.31;;;26.32;26.65
69239;BME280;56349;51.816;-0.026;2023-03-25T11:46:41;99823.79;;;26.31;26.68
69239;BME280;56349;51.816;-0.026;2023-03-25T11:49:09;99827.17;;;26.31;26.76
69239;BME280;56349;51.816;-0.026;2023-03-25T11:51:31;99821.11;;;26.29;26.67
69239;BME280;56349;51.816;-0.026;2023-03-25T11:53:57;99824.39;;;26.10;26.61
69239;BME280;56349;51.816;-0.026;2023-03-25T11:56:23;99831.85;;;26.32;26.77
69239;BME280;56349;51.816;-0.026;2023-03-25T11:58:47;99828.63;;;26.32;26.89
69239;BME280;56349;51.816;-0.026;2023-03-25T12:01:22;99831.14;;;26.34;26.95
69239;BME280;56349;51.816;-0.026;2023-03-25T12:03:39;99823.47;;;26.38;26.98
69239;BME280;56349;51.816;-0.026;2023-03-25T12:06:13;99832.79;;;26.43;26.94
69239;BME280;56349;51.816;-0.026;2023-03-25T12:08:40;99837.56;;;26.46;26.94
69239;BME280;56349;51.816;-0.026;2023-03-25T12:11:00;99833.75;;;26.48;26.98
69239;BME280;56349;51.816;-0.026;2023-03-25T12:13:34;99829.23;;;26.50;26.96
69239;BME280;56349;51.816;-0.026;2023-03-25T12:15:53;99830.87;;;26.76;26.99
69239;BME280;56349;51.816;-0.026;2023-03-25T12:20:48;99839.26;;;26.50;27.00
69239;BME280;56349;51.816;-0.026;2023-03-25T12:23:11;99841.61;;;26.51;26.96
69239;BME280;56349;51.816;-0.026;2023-03-25T12:25:37;99850.44;;;26.54;26.96
69239;BME280;56349;51.816;-0.026;2023-03-25T12:28:06;99842.08;;;26.82;26.93
69239;BME280;56349;51.816;-0.026;2023-03-25T12:30:31;99853.13;;;26.58;26.90
69239;BME280;56349;51.816;-0.026;2023-03-25T12:32:53;99846.37;;;26.60;26.87
69239;BME280;56349;51.816;-0.026;2023-03-25T12:35:22;99847.78;;;26.38;26.86
69239;BME280;56349;51.816;-0.026;2023-03-25T12:37:47;99860.95;;;26.51;26.80
69239;BME280;56349;51.816;-0.026;2023-03-25T12:40:17;99860.52;;;26.35;26.70
69239;BME280;56349;51.816;-0.026;2023-03-25T12:42:36;99865.15;;;26.68;26.64
69239;BME280;56349;51.816;-0.026;2023-03-25T12:45:08;99861.68;;;26.71;26.52
69239;BME280;56349;51.816;-0.026;2023-03-25T12:47:23;99864.67;;;26.93;26.53
69239;BME280;56349;51.816;-0.026;2023-03-25T12:50:00;99863.26;;;26.73;26.50
69239;BME280;56349;51.816;-0.026;2023-03-25T12:52:18;99858.95;;;26.76;26.46
69239;BME280;56349;51.816;-0.026;2023-03-25T12:54:47;99864.26;;;26.99;26.45